sensor_id;sensor_type;location;lat;lon;timestamp;temperature;humidity
47546;DHT22;50104;52.002;4.688;2024-01-30T00:04:08;7.20;89.20
47546;DHT22;50104;52.002;4.688;2024-01-30T00:09:09;7.20;89.20
47546;DHT22;50104;52.002;4.688;2024-01-30T00:14:13;7.20;89.40
47546;DHT22;50104;52.002;4.688;2024-01-30T00:19:14;7.30;89.50
47546;DHT22;50104;52.002;4.688;2024-01-30T00:24:15;7.30;89.60
47546;DHT22;50104;52.002;4.688;2024-01-30T00:29:15;7.30;89.60
47546;DHT22;50104;52.002;4.688;2024-01-30T00:34:19;7.30;89.60
47546;DHT22;50104;52.002;4.688;2024-01-30T00:39:20;7.30;89.60
47546;DHT22;50104;52.002;4.688;2024-01-30T00:44:21;7.30;89.50
47546;DHT22;50104;52.002;4.688;2024-01-30T00:49:22;7.30;89.50
47546;DHT22;50104;52.002;4.688;2024-01-30T00:54:23;7.30;89.50
47546;DHT22;50104;52.002;4.688;2024-01-30T00:59:23;7.30;89.50
47546;DHT22;50104;52.002;4.688;2024-01-30T01:04:24;7.30;89.60
47546;DHT22;50104;52.002;4.688;2024-01-30T01:09:25;7.30;89.60
47546;DHT22;50104;52.002;4.688;2024-01-30T01:14:27;7.30;89.60
47546;DHT22;50104;52.002;4.688;2024-01-30T01:19:27;7.30;89.50
47546;DHT22;50104;52.002;4.688;2024-01-30T01:24:30;7.30;89.40
47546;DHT22;50104;52.002;4.688;2024-01-30T01:29:31;7.30;89.40
47546;DHT22;50104;52.002;4.688;2024-01-30T01:34:32;7.30;89.30
47546;DHT22;50104;52.002;4.688;2024-01-30T01:39:33;7.30;89.30
47546;DHT22;50104;52.002;4.688;2024-01-30T01:44:34;7.30;89.40
47546;DHT22;50104;52.002;4.688;2024-01-30T01:49:35;7.30;89.40
47546;DHT22;50104;52.002;4.688;2024-01-30T01:54:36;7.30;89.60
47546;DHT22;50104;52.002;4.688;2024-01-30T01:59:37;7.30;89.70
47546;DHT22;50104;52.002;4.688;2024-01-30T02:04:38;7.30;89.80
47546;DHT22;50104;52.002;4.688;2024-01-30T02:09:39;7.30;89.80
47546;DHT22;50104;52.002;4.688;2024-01-30T02:14:46;7.30;89.80
47546;DHT22;50104;52.002;4.688;2024-01-30T02:19:48;7.40;89.80
47546;DHT22;50104;52.002;4.688;2024-01-30T02:24:49;7.40;89.90
47546;DHT22;50104;52.002;4.688;2024-01-30T02:29:50;7.50;90.00
47546;DHT22;50104;52.002;4.688;2024-01-30T02:34:51;7.50;90.30
47546;DHT22;50104;52.002;4.688;2024-01-30T02:39:52;7.50;90.50
47546;DHT22;50104;52.002;4.688;2024-01-30T02:44:53;7.50;90.50
47546;DHT22;50104;52.002;4.688;2024-01-30T02:49:54;7.60;90.40
47546;DHT22;50104;52.002;4.688;2024-01-30T02:54:54;7.60;90.30
47546;DHT22;50104;52.002;4.688;2024-01-30T02:59:55;7.60;90.30
47546;DHT22;50104;52.002;4.688;2024-01-30T03:04:56;7.70;90.30
47546;DHT22;50104;52.002;4.688;2024-01-30T03:09:57;7.70;90.20
47546;DHT22;50104;52.002;4.688;2024-01-30T03:14:58;7.70;90.20
47546;DHT22;50104;52.002;4.688;2024-01-30T03:19:59;7.70;90.30
47546;DHT22;50104;52.002;4.688;2024-01-30T03:24:59;7.70;90.40
47546;DHT22;50104;52.002;4.688;2024-01-30T03:30:00;7.80;90.40
47546;DHT22;50104;52.002;4.688;2024-01-30T03:35:01;7.80;90.40
47546;DHT22;50104;52.002;4.688;2024-01-30T03:40:02;7.80;90.40
47546;DHT22;50104;52.002;4.688;2024-01-30T03:45:04;7.80;90.40
47546;DHT22;50104;52.002;4.688;2024-01-30T03:50:05;7.80;90.40
47546;DHT22;50104;52.002;4.688;2024-01-30T03:55:07;7.80;90.40
47546;DHT22;50104;52.002;4.688;2024-01-30T04:00:08;7.80;90.30
47546;DHT22;50104;52.002;4.688;2024-01-30T04:05:09;7.90;90.30
47546;DHT22;50104;52.002;4.688;2024-01-30T04:10:10;7.90;90.20
47546;DHT22;50104;52.002;4.688;2024-01-30T04:15:11;7.90;90.30
47546;DHT22;50104;52.002;4.688;2024-01-30T04:20:16;7.90;90.50
47546;DHT22;50104;52.002;4.688;2024-01-30T04:25:17;7.90;90.40
47546;DHT22;50104;52.002;4.688;2024-01-30T04:30:18;7.90;90.20
47546;DHT22;50104;52.002;4.688;2024-01-30T04:35:19;7.90;89.90
47546;DHT22;50104;52.002;4.688;2024-01-30T04:40:23;7.90;89.80
47546;DHT22;50104;52.002;4.688;2024-01-30T04:45:24;7.90;89.80
47546;DHT22;50104;52.002;4.688;2024-01-30T04:50:25;7.90;89.80
47546;DHT22;50104;52.002;4.688;2024-01-30T04:55:27;7.90;89.90
47546;DHT22;50104;52.002;4.688;2024-01-30T05:00:28;7.90;90.00
47546;DHT22;50104;52.002;4.688;2024-01-30T05:05:28;7.90;90.10
47546;DHT22;50104;52.002;4.688;2024-01-30T05:10:29;7.90;90.10
47546;DHT22;50104;52.002;4.688;2024-01-30T05:15:30;8.00;90.10
47546;DHT22;50104;52.002;4.688;2024-01-30T05:20:31;8.00;90.10
47546;DHT22;50104;52.002;4.688;2024-01-30T05:25:32;8.00;90.30
47546;DHT22;50104;52.002;4.688;2024-01-30T05:30:32;8.00;90.50
47546;DHT22;50104;52.002;4.688;2024-01-30T05:35:33;8.00;90.80
47546;DHT22;50104;52.002;4.688;2024-01-30T05:40:34;8.00;91.00
47546;DHT22;50104;52.002;4.688;2024-01-30T05:45:35;8.10;90.90
47546;DHT22;50104;52.002;4.688;2024-01-30T05:50:36;8.10;91.10
47546;DHT22;50104;52.002;4.688;2024-01-30T05:55:37;8.10;91.20
47546;DHT22;50104;52.002;4.688;2024-01-30T06:00:38;8.20;91.50
47546;DHT22;50104;52.002;4.688;2024-01-30T06:05:38;8.20;91.70
47546;DHT22;50104;52.002;4.688;2024-01-30T06:10:39;8.20;91.80
47546;DHT22;50104;52.002;4.688;2024-01-30T06:15:40;8.30;91.80
47546;DHT22;50104;52.002;4.688;2024-01-30T06:20:41;8.30;92.10
47546;DHT22;50104;52.002;4.688;2024-01-30T06:25:42;8.40;92.20
47546;DHT22;50104;52.002;4.688;2024-01-30T06:30:43;8.40;92.30
47546;DHT22;50104;52.002;4.688;2024-01-30T06:35:44;8.40;92.20
47546;DHT22;50104;52.002;4.688;2024-01-30T06:40:46;8.50;92.20
47546;DHT22;50104;52.002;4.688;2024-01-30T06:45:47;8.60;92.40
47546;DHT22;50104;52.002;4.688;2024-01-30T06:50:48;8.60;92.40
47546;DHT22;50104;52.002;4.688;2024-01-30T06:55:49;8.60;92.20
47546;DHT22;50104;52.002;4.688;2024-01-30T07:00:51;8.70;92.10
47546;DHT22;50104;52.002;4.688;2024-01-30T07:05:52;8.70;92.00
47546;DHT22;50104;52.002;4.688;2024-01-30T07:10:53;8.80;92.40
47546;DHT22;50104;52.002;4.688;2024-01-30T07:15:55;8.80;92.70
47546;DHT22;50104;52.002;4.688;2024-01-30T07:20:56;8.90;92.60
47546;DHT22;50104;52.002;4.688;2024-01-30T07:25:57;8.90;93.20
47546;DHT22;50104;52.002;4.688;2024-01-30T07:30:58;9.00;93.20
47546;DHT22;50104;52.002;4.688;2024-01-30T07:35:58;9.00;93.00
47546;DHT22;50104;52.002;4.688;2024-01-30T07:40:59;9.10;92.80
47546;DHT22;50104;52.002;4.688;2024-01-30T07:46:00;9.10;93.00
47546;DHT22;50104;52.002;4.688;2024-01-30T07:51:03;9.20;93.10
47546;DHT22;50104;52.002;4.688;2024-01-30T07:56:05;9.20;93.30
47546;DHT22;50104;52.002;4.688;2024-01-30T08:01:06;9.30;93.40
47546;DHT22;50104;52.002;4.688;2024-01-30T08:06:07;9.30;93.50
47546;DHT22;50104;52.002;4.688;2024-01-30T08:11:08;9.40;93.50
47546;DHT22;50104;52.002;4.688;2024-01-30T08:16:09;9.40;93.30
47546;DHT22;50104;52.002;4.688;2024-01-30T08:21:10;9.50;93.40
47546;DHT22;50104;52.002;4.688;2024-01-30T08:26:10;9.60;93.60
47546;DHT22;50104;52.002;4.688;2024-01-30T08:31:11;9.60;93.50
47546;DHT22;50104;52.002;4.688;2024-01-30T08:36:12;9.70;93.50
47546;DHT22;50104;52.002;4.688;2024-01-30T08:41:13;9.70;93.60
47546;DHT22;50104;52.002;4.688;2024-01-30T08:46:17;9.80;93.70
47546;DHT22;50104;52.002;4.688;2024-01-30T08:51:19;9.80;93.30
47546;DHT22;50104;52.002;4.688;2024-01-30T08:56:20;9.90;93.60
47546;DHT22;50104;52.002;4.688;2024-01-30T09:01:20;9.90;93.70
47546;DHT22;50104;52.002;4.688;2024-01-30T09:06:21;10.00;93.70
47546;DHT22;50104;52.002;4.688;2024-01-30T09:11:22;10.10;93.70
47546;DHT22;50104;52.002;4.688;2024-01-30T09:16:23;10.10;93.70
47546;DHT22;50104;52.002;4.688;2024-01-30T09:21:23;10.20;93.50
47546;DHT22;50104;52.002;4.688;2024-01-30T09:26:24;10.20;93.60
47546;DHT22;50104;52.002;4.688;2024-01-30T09:31:26;10.30;93.60
47546;DHT22;50104;52.002;4.688;2024-01-30T09:36:27;10.40;93.40
47546;DHT22;50104;52.002;4.688;2024-01-30T09:41:29;10.50;93.20
47546;DHT22;50104;52.002;4.688;2024-01-30T09:46:33;10.50;93.10
47546;DHT22;50104;52.002;4.688;2024-01-30T09:51:35;10.60;93.30
47546;DHT22;50104;52.002;4.688;2024-01-30T09:56:36;10.60;92.90
47546;DHT22;50104;52.002;4.688;2024-01-30T10:01:38;10.70;92.80
47546;DHT22;50104;52.002;4.688;2024-01-30T10:06:40;10.80;92.80
47546;DHT22;50104;52.002;4.688;2024-01-30T10:11:41;10.80;92.30
47546;DHT22;50104;52.002;4.688;2024-01-30T10:16:41;10.80;91.70
47546;DHT22;50104;52.002;4.688;2024-01-30T10:21:43;10.80;91.50
47546;DHT22;50104;52.002;4.688;2024-01-30T10:26:44;10.90;91.20
47546;DHT22;50104;52.002;4.688;2024-01-30T10:31:44;10.90;91.00
47546;DHT22;50104;52.002;4.688;2024-01-30T10:36:47;10.90;90.30
47546;DHT22;50104;52.002;4.688;2024-01-30T10:41:53;10.90;89.80
47546;DHT22;50104;52.002;4.688;2024-01-30T10:47:00;10.90;89.50
47546;DHT22;50104;52.002;4.688;2024-01-30T10:52:05;10.90;89.30
47546;DHT22;50104;52.002;4.688;2024-01-30T10:57:07;10.80;89.00
47546;DHT22;50104;52.002;4.688;2024-01-30T11:02:10;10.80;88.40
47546;DHT22;50104;52.002;4.688;2024-01-30T11:07:18;10.80;87.90
47546;DHT22;50104;52.002;4.688;2024-01-30T11:12:26;10.70;87.90
47546;DHT22;50104;52.002;4.688;2024-01-30T11:22:52;10.60;88.00
47546;DHT22;50104;52.002;4.688;2024-01-30T11:27:55;10.60;88.20
47546;DHT22;50104;52.002;4.688;2024-01-30T11:38:07;10.50;88.00
47546;DHT22;50104;52.002;4.688;2024-01-30T11:43:09;10.40;88.00
47546;DHT22;50104;52.002;4.688;2024-01-30T11:48:12;10.40;87.80
47546;DHT22;50104;52.002;4.688;2024-01-30T11:53:13;10.30;87.60
47546;DHT22;50104;52.002;4.688;2024-01-30T11:58:14;10.30;87.50
47546;DHT22;50104;52.002;4.688;2024-01-30T12:03:14;10.20;87.50
47546;DHT22;50104;52.002;4.688;2024-01-30T12:08:16;10.20;88.20
47546;DHT22;50104;52.002;4.688;2024-01-30T12:13:17;10.20;87.80
47546;DHT22;50104;52.002;4.688;2024-01-30T12:18:21;10.10;87.90
47546;DHT22;50104;52.002;4.688;2024-01-30T12:23:22;10.10;88.00
47546;DHT22;50104;52.002;4.688;2024-01-30T12:28:26;10.10;88.20
47546;DHT22;50104;52.002;4.688;2024-01-30T12:33:27;10.20;88.40
47546;DHT22;50104;52.002;4.688;2024-01-30T12:38:29;10.20;88.40
47546;DHT22;50104;52.002;4.688;2024-01-30T12:43:30;10.20;88.50
47546;DHT22;50104;52.002;4.688;2024-01-30T12:48:31;10.20;88.70
47546;DHT22;50104;52.002;4.688;2024-01-30T12:53:32;10.20;88.80
47546;DHT22;50104;52.002;4.688;2024-01-30T12:58:33;10.20;88.90
47546;DHT22;50104;52.002;4.688;2024-01-30T13:03:34;10.20;89.00
47546;DHT22;50104;52.002;4.688;2024-01-30T13:08:35;10.20;89.10
47546;DHT22;50104;52.002;4.688;2024-01-30T13:13:36;10.20;89.10
47546;DHT22;50104;52.002;4.688;2024-01-30T13:18:37;10.10;89.20
47546;DHT22;50104;52.002;4.688;2024-01-30T13:23:37;10.10;89.20
47546;DHT22;50104;52.002;4.688;2024-01-30T13:28:38;10.10;89.20
47546;DHT22;50104;52.002;4.688;2024-01-30T13:33:39;10.10;89.30
47546;DHT22;50104;52.002;4.688;2024-01-30T13:38:40;10.10;89.40
47546;DHT22;50104;52.002;4.688;2024-01-30T13:43:41;10.10;89.50
47546;DHT22;50104;52.002;4.688;2024-01-30T13:48:41;10.10;89.70
47546;DHT22;50104;52.002;4.688;2024-01-30T13:53:42;10.10;89.70
47546;DHT22;50104;52.002;4.688;2024-01-30T13:58:43;10.10;89.80
47546;DHT22;50104;52.002;4.688;2024-01-30T14:03:44;10.00;90.10
47546;DHT22;50104;52.002;4.688;2024-01-30T14:08:45;10.00;90.10
47546;DHT22;50104;52.002;4.688;2024-01-30T14:13:46;10.00;90.20
47546;DHT22;50104;52.002;4.688;2024-01-30T14:18:47;9.90;90.20
47546;DHT22;50104;52.002;4.688;2024-01-30T14:23:48;9.90;90.20
47546;DHT22;50104;52.002;4.688;2024-01-30T14:28:49;9.80;90.30
47546;DHT22;50104;52.002;4.688;2024-01-30T14:33:50;9.80;90.40
47546;DHT22;50104;52.002;4.688;2024-01-30T14:38:51;9.70;90.50
47546;DHT22;50104;52.002;4.688;2024-01-30T14:43:52;9.70;90.50
47546;DHT22;50104;52.002;4.688;2024-01-30T14:48:53;9.70;90.70
47546;DHT22;50104;52.002;4.688;2024-01-30T14:53:55;9.60;90.70
47546;DHT22;50104;52.002;4.688;2024-01-30T14:58:56;9.60;90.80
47546;DHT22;50104;52.002;4.688;2024-01-30T15:03:57;9.50;90.90
47546;DHT22;50104;52.002;4.688;2024-01-30T15:08:57;9.50;90.90
47546;DHT22;50104;52.002;4.688;2024-01-30T15:13:58;9.40;91.10
47546;DHT22;50104;52.002;4.688;2024-01-30T15:18:59;9.40;91.10
47546;DHT22;50104;52.002;4.688;2024-01-30T15:24:01;9.40;91.00
47546;DHT22;50104;52.002;4.688;2024-01-30T15:29:03;9.30;91.30
47546;DHT22;50104;52.002;4.688;2024-01-30T15:34:04;9.30;91.50
47546;DHT22;50104;52.002;4.688;2024-01-30T15:39:05;9.20;91.60
47546;DHT22;50104;52.002;4.688;2024-01-30T15:44:06;9.20;91.70
47546;DHT22;50104;52.002;4.688;2024-01-30T15:49:07;9.10;92.00
47546;DHT22;50104;52.002;4.688;2024-01-30T15:54:08;9.10;92.10
47546;DHT22;50104;52.002;4.688;2024-01-30T15:59:09;9.00;92.10
47546;DHT22;50104;52.002;4.688;2024-01-30T16:04:10;9.00;92.20
47546;DHT22;50104;52.002;4.688;2024-01-30T16:09:11;9.00;92.20
47546;DHT22;50104;52.002;4.688;2024-01-30T16:14:12;9.00;92.50
47546;DHT22;50104;52.002;4.688;2024-01-30T16:19:13;8.90;92.60
47546;DHT22;50104;52.002;4.688;2024-01-30T16:24:14;8.90;92.40
47546;DHT22;50104;52.002;4.688;2024-01-30T16:29:15;8.90;92.30
47546;DHT22;50104;52.002;4.688;2024-01-30T16:34:16;8.90;92.20
47546;DHT22;50104;52.002;4.688;2024-01-30T16:39:17;8.90;92.20
47546;DHT22;50104;52.002;4.688;2024-01-30T16:44:17;8.90;92.30
47546;DHT22;50104;52.002;4.688;2024-01-30T16:49:18;8.80;92.20
47546;DHT22;50104;52.002;4.688;2024-01-30T16:54:19;8.80;92.00
47546;DHT22;50104;52.002;4.688;2024-01-30T16:59:20;8.80;92.00
47546;DHT22;50104;52.002;4.688;2024-01-30T17:04:21;8.70;92.00
47546;DHT22;50104;52.002;4.688;2024-01-30T17:09:22;8.70;92.10
47546;DHT22;50104;52.002;4.688;2024-01-30T17:14:23;8.70;92.00
47546;DHT22;50104;52.002;4.688;2024-01-30T17:19:23;8.70;91.90
47546;DHT22;50104;52.002;4.688;2024-01-30T17:24:24;8.70;92.00
47546;DHT22;50104;52.002;4.688;2024-01-30T17:29:25;8.70;92.00
47546;DHT22;50104;52.002;4.688;2024-01-30T17:34:26;8.70;91.80
47546;DHT22;50104;52.002;4.688;2024-01-30T17:39:28;8.70;91.80
47546;DHT22;50104;52.002;4.688;2024-01-30T17:44:28;8.60;91.90
47546;DHT22;50104;52.002;4.688;2024-01-30T17:49:29;8.60;91.80
47546;DHT22;50104;52.002;4.688;2024-01-30T17:54:30;8.60;91.90
47546;DHT22;50104;52.002;4.688;2024-01-30T17:59:31;8.60;91.80
47546;DHT22;50104;52.002;4.688;2024-01-30T18:04:32;8.60;91.80
47546;DHT22;50104;52.002;4.688;2024-01-30T18:09:33;8.50;91.60
47546;DHT22;50104;52.002;4.688;2024-01-30T18:14:34;8.50;91.70
47546;DHT22;50104;52.002;4.688;2024-01-30T18:19:35;8.50;91.60
47546;DHT22;50104;52.002;4.688;2024-01-30T18:24:36;8.40;91.70
47546;DHT22;50104;52.002;4.688;2024-01-30T18:29:38;8.40;91.60
47546;DHT22;50104;52.002;4.688;2024-01-30T18:34:40;8.40;91.70
47546;DHT22;50104;52.002;4.688;2024-01-30T18:39:40;8.40;91.60
47546;DHT22;50104;52.002;4.688;2024-01-30T18:44:43;8.40;91.70
47546;DHT22;50104;52.002;4.688;2024-01-30T18:49:44;8.30;91.60
47546;DHT22;50104;52.002;4.688;2024-01-30T18:54:45;8.30;91.50
47546;DHT22;50104;52.002;4.688;2024-01-30T18:59:46;8.30;91.60
47546;DHT22;50104;52.002;4.688;2024-01-30T19:04:46;8.30;91.70
47546;DHT22;50104;52.002;4.688;2024-01-30T19:09:50;8.20;91.80
47546;DHT22;50104;52.002;4.688;2024-01-30T19:14:53;8.20;91.70
47546;DHT22;50104;52.002;4.688;2024-01-30T19:19:54;8.20;91.70
47546;DHT22;50104;52.002;4.688;2024-01-30T19:24:55;8.20;91.60
47546;DHT22;50104;52.002;4.688;2024-01-30T19:29:57;8.20;91.70
47546;DHT22;50104;52.002;4.688;2024-01-30T19:34:58;8.20;91.60
47546;DHT22;50104;52.002;4.688;2024-01-30T19:39:59;8.20;91.60
47546;DHT22;50104;52.002;4.688;2024-01-30T19:45:00;8.10;91.60
47546;DHT22;50104;52.002;4.688;2024-01-30T19:50:01;8.10;91.60
47546;DHT22;50104;52.002;4.688;2024-01-30T19:55:02;8.10;91.60
47546;DHT22;50104;52.002;4.688;2024-01-30T20:00:04;8.10;91.60
47546;DHT22;50104;52.002;4.688;2024-01-30T20:05:06;8.10;91.70
47546;DHT22;50104;52.002;4.688;2024-01-30T20:10:07;8.10;91.60
47546;DHT22;50104;52.002;4.688;2024-01-30T20:15:09;8.10;91.60
47546;DHT22;50104;52.002;4.688;2024-01-30T20:20:12;8.00;91.70
47546;DHT22;50104;52.002;4.688;2024-01-30T20:25:16;8.00;91.70
47546;DHT22;50104;52.002;4.688;2024-01-30T20:30:17;8.00;91.60
47546;DHT22;50104;52.002;4.688;2024-01-30T20:35:22;8.00;91.60
47546;DHT22;50104;52.002;4.688;2024-01-30T20:40:23;7.90;91.60
47546;DHT22;50104;52.002;4.688;2024-01-30T20:45:24;7.90;91.50
47546;DHT22;50104;52.002;4.688;2024-01-30T20:50:25;7.90;91.40
47546;DHT22;50104;52.002;4.688;2024-01-30T20:55:25;7.80;91.40
47546;DHT22;50104;52.002;4.688;2024-01-30T21:00:26;7.80;91.30
47546;DHT22;50104;52.002;4.688;2024-01-30T21:05:27;7.80;91.30
47546;DHT22;50104;52.002;4.688;2024-01-30T21:10:28;7.80;91.40
47546;DHT22;50104;52.002;4.688;2024-01-30T21:15:29;7.80;91.40
47546;DHT22;50104;52.002;4.688;2024-01-30T21:20:29;7.70;91.40
47546;DHT22;50104;52.002;4.688;2024-01-30T21:25:30;7.70;91.30
47546;DHT22;50104;52.002;4.688;2024-01-30T21:30:31;7.70;91.30
47546;DHT22;50104;52.002;4.688;2024-01-30T21:35:32;7.70;91.20
47546;DHT22;50104;52.002;4.688;2024-01-30T21:40:33;7.60;91.10
47546;DHT22;50104;52.002;4.688;2024-01-30T21:45:33;7.60;91.10
47546;DHT22;50104;52.002;4.688;2024-01-30T21:50:34;7.60;91.10
47546;DHT22;50104;52.002;4.688;2024-01-30T21:55:35;7.50;91.20
47546;DHT22;50104;52.002;4.688;2024-01-30T22:00:36;7.50;91.20
47546;DHT22;50104;52.002;4.688;2024-01-30T22:05:37;7.50;91.20
47546;DHT22;50104;52.002;4.688;2024-01-30T22:10:38;7.50;91.20
47546;DHT22;50104;52.002;4.688;2024-01-30T22:15:39;7.50;91.20
47546;DHT22;50104;52.002;4.688;2024-01-30T22:20:40;7.50;91.20
47546;DHT22;50104;52.002;4.688;2024-01-30T22:25:41;7.40;91.20
47546;DHT22;50104;52.002;4.688;2024-01-30T22:30:42;7.40;91.20
47546;DHT22;50104;52.002;4.688;2024-01-30T22:35:43;7.40;91.20
47546;DHT22;50104;52.002;4.688;2024-01-30T22:40:44;7.40;91.30
47546;DHT22;50104;52.002;4.688;2024-01-30T22:45:44;7.30;91.40
47546;DHT22;50104;52.002;4.688;2024-01-30T22:50:45;7.30;91.40
47546;DHT22;50104;52.002;4.688;2024-01-30T22:55:46;7.30;91.40
47546;DHT22;50104;52.002;4.688;2024-01-30T23:00:47;7.30;91.50
47546;DHT22;50104;52.002;4.688;2024-01-30T23:05:48;7.30;91.50
47546;DHT22;50104;52.002;4.688;2024-01-30T23:10:49;7.20;91.40
47546;DHT22;50104;52.002;4.688;2024-01-30T23:15:49;7.20;91.40
47546;DHT22;50104;52.002;4.688;2024-01-30T23:20:50;7.20;91.40
47546;DHT22;50104;52.002;4.688;2024-01-30T23:25:51;7.10;91.20
47546;DHT22;50104;52.002;4.688;2024-01-30T23:30:52;7.10;91.20
47546;DHT22;50104;52.002;4.688;2024-01-30T23:35:53;7.00;91.10
47546;DHT22;50104;52.002;4.688;2024-01-30T23:40:55;7.00;91.30
47546;DHT22;50104;52.002;4.688;2024-01-30T23:45:56;7.00;91.40
47546;DHT22;50104;52.002;4.688;2024-01-30T23:50:57;6.90;91.50
47546;DHT22;50104;52.002;4.688;2024-01-30T23:55:58;6.90;91.70
